createdAt,value
2023-02-16T00:01:59.876Z,5.39
2023-02-16T00:04:27.423Z,5.37
2023-02-16T00:06:54.877Z,5.35
2023-02-16T00:09:21.558Z,5.31
2023-02-16T00:11:48.438Z,5.26
2023-02-16T00:14:15.046Z,5.22
2023-02-16T00:16:41.926Z,5.19
2023-02-16T00:19:25.943Z,5.15
2023-02-16T00:21:54.374Z,5.08
2023-02-16T00:24:20.842Z,5.03
2023-02-16T00:26:47.662Z,5.00
2023-02-16T00:29:16.833Z,4.96
2023-02-16T00:31:43.276Z,4.96
2023-02-16T00:34:20.275Z,4.96
2023-02-16T00:36:46.586Z,4.96
2023-02-16T00:39:14.289Z,4.94
2023-02-16T00:41:40.725Z,4.92
2023-02-16T00:44:12.655Z,4.92
2023-02-16T00:46:39.024Z,4.95
2023-02-16T00:49:05.358Z,4.96
2023-02-16T00:51:31.690Z,4.97
2023-02-16T00:53:58.019Z,4.97
2023-02-16T00:56:25.754Z,4.96
2023-02-16T00:58:52.598Z,4.94
2023-02-16T01:01:20.952Z,4.92
2023-02-16T01:03:47.312Z,4.88
2023-02-16T01:06:13.629Z,4.86
2023-02-16T01:08:40.248Z,4.83
2023-02-16T01:11:07.463Z,4.79
2023-02-16T01:13:36.770Z,4.80
2023-02-16T01:16:03.146Z,4.75
2023-02-16T01:18:29.626Z,4.72
2023-02-16T01:20:55.957Z,4.72
2023-02-16T01:23:22.288Z,4.70
2023-02-16T01:25:48.617Z,4.68
2023-02-16T01:28:17.760Z,4.69
2023-02-16T01:30:45.429Z,4.66
2023-02-16T01:33:11.778Z,4.63
2023-02-16T01:35:38.292Z,4.62
2023-02-16T01:38:04.660Z,4.61
2023-02-16T01:40:38.339Z,4.57
2023-02-16T01:43:10.662Z,4.53
2023-02-16T01:45:40.605Z,4.48
2023-02-16T01:48:18.006Z,4.48
2023-02-16T01:50:47.996Z,4.43
2023-02-16T01:53:18.391Z,4.39
2023-02-16T01:55:47.010Z,4.35
2023-02-16T01:58:16.059Z,4.37
2023-02-16T02:01:00.871Z,4.36
2023-02-16T02:03:30.669Z,4.34
2023-02-16T02:05:57.041Z,4.33
2023-02-16T02:08:28.464Z,4.31
2023-02-16T02:10:59.274Z,4.25
2023-02-16T02:13:29.060Z,4.22
2023-02-16T02:15:56.682Z,4.15
2023-02-16T02:18:23.029Z,4.11
2023-02-16T02:21:14.254Z,4.08
2023-02-16T02:23:48.928Z,4.06
2023-02-16T02:26:42.328Z,4.03
2023-02-16T02:29:18.217Z,4.02
2023-02-16T02:31:52.312Z,4.02
2023-02-16T02:34:25.832Z,4.00
2023-02-16T02:37:00.548Z,3.97
2023-02-16T02:39:32.738Z,3.98
2023-02-16T02:42:02.900Z,3.98
2023-02-16T02:44:31.417Z,3.97
2023-02-16T02:46:57.762Z,3.99
2023-02-16T02:49:24.239Z,3.98
2023-02-16T02:51:51.122Z,3.99
2023-02-16T02:54:19.379Z,3.96
2023-02-16T02:56:47.668Z,3.96
2023-02-16T02:59:14.319Z,3.95
2023-02-16T03:01:43.761Z,3.94
2023-02-16T03:04:11.074Z,3.94
2023-02-16T03:06:38.915Z,3.96
2023-02-16T03:09:06.762Z,3.97
2023-02-16T03:11:33.098Z,3.97
2023-02-16T03:14:02.245Z,3.97
2023-02-16T03:16:31.173Z,3.97
2023-02-16T03:18:59.532Z,3.98
2023-02-16T03:21:26.980Z,3.97
2023-02-16T03:23:54.654Z,3.97
2023-02-16T03:26:21.748Z,3.97
2023-02-16T03:28:48.716Z,3.98
2023-02-16T03:31:17.649Z,3.98
2023-02-16T03:33:44.959Z,3.96
2023-02-16T03:36:12.636Z,3.94
2023-02-16T03:38:39.113Z,3.92
2023-02-16T03:41:06.181Z,3.90
2023-02-16T03:43:32.605Z,3.89
2023-02-16T03:45:58.956Z,3.87
2023-02-16T03:48:25.266Z,3.83
2023-02-16T03:50:51.550Z,3.77
2023-02-16T03:53:19.231Z,3.75
2023-02-16T03:55:46.394Z,3.71
2023-02-16T03:58:14.454Z,3.69
2023-02-16T04:00:40.783Z,3.69
2023-02-16T04:03:07.552Z,3.66
2023-02-16T04:05:33.937Z,3.65
2023-02-16T04:08:00.322Z,3.64
2023-02-16T04:10:28.137Z,3.63
2023-02-16T04:12:54.451Z,3.60
2023-02-16T04:15:22.114Z,3.62
2023-02-16T04:17:48.794Z,3.62
2023-02-16T04:20:16.114Z,3.64
2023-02-16T04:22:42.456Z,3.68
2023-02-16T04:25:08.771Z,3.70
2023-02-16T04:27:36.963Z,3.72
2023-02-16T04:30:05.168Z,3.74
2023-02-16T04:32:31.507Z,3.76
2023-02-16T04:34:57.830Z,3.80
2023-02-16T04:37:24.147Z,3.82
2023-02-16T04:39:50.464Z,3.84
2023-02-16T04:42:16.862Z,3.86
2023-02-16T04:44:44.545Z,3.86
2023-02-16T04:47:10.937Z,3.87
2023-02-16T04:49:37.499Z,3.87
2023-02-16T04:52:03.982Z,3.86
2023-02-16T04:54:30.514Z,3.83
2023-02-16T04:56:56.810Z,3.83
2023-02-16T04:59:23.249Z,3.79
2023-02-16T05:01:50.925Z,3.76
2023-02-16T05:04:17.304Z,3.76
2023-02-16T05:06:43.593Z,3.77
2023-02-16T05:09:10.144Z,3.80
2023-02-16T05:11:36.462Z,3.82
2023-02-16T05:14:02.782Z,3.83
2023-02-16T05:16:29.082Z,3.84
2023-02-16T05:18:58.727Z,3.85
2023-02-16T05:21:25.231Z,3.86
2023-02-16T05:23:51.552Z,3.89
2023-02-16T05:26:17.829Z,3.92
2023-02-16T05:28:44.110Z,3.94
2023-02-16T05:31:10.475Z,3.99
2023-02-16T05:33:36.833Z,4.03
2023-02-16T05:36:04.753Z,4.06
2023-02-16T05:38:31.026Z,4.09
2023-02-16T05:40:58.731Z,4.12
2023-02-16T05:43:25.006Z,4.17
2023-02-16T05:45:51.346Z,4.21
2023-02-16T05:48:17.686Z,4.23
2023-02-16T05:50:44.049Z,4.26
2023-02-16T05:53:11.662Z,4.30
2023-02-16T05:55:37.985Z,4.34
2023-02-16T05:58:04.278Z,4.36
2023-02-16T06:00:30.614Z,4.38
2023-02-16T06:02:57.001Z,4.41
2023-02-16T06:05:23.340Z,4.43
2023-02-16T06:07:49.617Z,4.45
2023-02-16T06:10:17.382Z,4.47
2023-02-16T06:12:44.957Z,4.50
2023-02-16T06:15:11.362Z,4.54
2023-02-16T06:17:37.757Z,4.56
2023-02-16T06:20:04.932Z,4.59
2023-02-16T06:22:31.212Z,4.63
2023-02-16T06:24:57.494Z,4.65
2023-02-16T06:27:25.156Z,4.67
2023-02-16T06:29:51.441Z,4.70
2023-02-16T06:32:17.859Z,4.72
2023-02-16T06:34:44.215Z,4.75
2023-02-16T06:37:10.509Z,4.76
2023-02-16T06:39:36.844Z,4.81
2023-02-16T06:42:03.342Z,4.83
2023-02-16T06:44:31.030Z,4.85
2023-02-16T06:46:57.475Z,4.88
2023-02-16T06:49:26.680Z,4.88
2023-02-16T06:51:54.000Z,4.89
2023-02-16T06:54:20.453Z,4.93
2023-02-16T06:56:46.734Z,4.96
2023-02-16T06:59:13.141Z,4.98
2023-02-16T07:01:41.461Z,5.03
2023-02-16T07:04:08.816Z,5.06
2023-02-16T07:06:35.113Z,5.08
2023-02-16T07:09:01.516Z,5.12
2023-02-16T07:11:27.968Z,5.13
2023-02-16T07:13:54.299Z,5.16
2023-02-16T07:16:21.035Z,5.19
2023-02-16T07:18:48.736Z,5.22
2023-02-16T07:21:15.252Z,5.25
2023-02-16T07:23:41.578Z,5.28
2023-02-16T07:26:07.969Z,5.31
2023-02-16T07:28:34.698Z,5.33
2023-02-16T07:31:05.882Z,5.39
2023-02-16T07:33:32.346Z,5.44
2023-02-16T07:36:00.135Z,5.50
2023-02-16T07:38:26.456Z,5.54
2023-02-16T07:40:52.820Z,5.59
2023-02-16T07:43:19.144Z,5.68
2023-02-16T07:45:45.483Z,5.73
2023-02-16T07:48:11.807Z,5.77
2023-02-16T07:50:38.110Z,5.81
2023-02-16T07:53:05.734Z,5.85
2023-02-16T07:55:32.041Z,5.89
2023-02-16T07:57:58.513Z,5.95
2023-02-16T08:00:24.914Z,6.00
2023-02-16T08:02:51.396Z,6.05
2023-02-16T08:05:17.864Z,6.10
2023-02-16T08:07:46.480Z,6.18
2023-02-16T08:10:14.668Z,6.26
2023-02-16T08:12:41.002Z,6.31
2023-02-16T08:15:07.892Z,6.39
2023-02-16T08:17:34.616Z,6.46
2023-02-16T08:20:00.954Z,6.50
2023-02-16T08:22:27.271Z,6.53
2023-02-16T08:24:53.576Z,6.55
2023-02-16T08:27:21.251Z,6.57
2023-02-16T08:29:47.536Z,6.60
2023-02-16T08:32:14.136Z,6.60
2023-02-16T08:34:43.164Z,6.64
2023-02-16T08:37:11.595Z,6.69
2023-02-16T08:39:37.897Z,6.70
2023-02-16T08:42:04.396Z,6.73
2023-02-16T08:44:32.289Z,6.77
2023-02-16T08:46:59.786Z,6.82
2023-02-16T08:49:26.414Z,6.85
2023-02-16T08:51:53.833Z,6.87
2023-02-16T08:54:21.387Z,6.94
2023-02-16T08:56:47.749Z,6.98
2023-02-16T08:59:14.740Z,7.05
2023-02-16T09:01:42.702Z,7.11
2023-02-16T09:04:09.033Z,7.16
2023-02-16T09:06:36.615Z,7.19
2023-02-16T09:09:02.923Z,7.23
2023-02-16T09:11:29.319Z,7.24
2023-02-16T09:13:55.646Z,7.28
2023-02-16T09:16:22.923Z,7.31
2023-02-16T09:18:51.241Z,7.31
2023-02-16T09:21:18.580Z,7.30
2023-02-16T09:23:45.531Z,7.30
2023-02-16T09:26:11.864Z,7.32
2023-02-16T09:28:38.654Z,7.41
2023-02-16T09:31:09.075Z,7.42
2023-02-16T09:33:35.590Z,7.40
2023-02-16T09:36:05.875Z,7.40
2023-02-16T09:38:32.437Z,7.39
2023-02-16T09:40:58.870Z,7.44
2023-02-16T09:43:33.091Z,7.45
2023-02-16T09:46:01.793Z,7.45
2023-02-16T09:48:33.873Z,7.47
2023-02-16T09:51:01.051Z,7.48
2023-02-16T09:53:32.418Z,7.52
2023-02-16T09:56:04.283Z,7.58
2023-02-16T09:58:36.927Z,7.62
2023-02-16T10:01:07.035Z,7.64
2023-02-16T10:03:40.146Z,7.72
2023-02-16T10:06:17.706Z,7.73
2023-02-16T10:08:47.333Z,7.73
2023-02-16T10:11:15.055Z,7.76
2023-02-16T10:13:43.349Z,7.80
2023-02-16T10:16:13.953Z,7.85
2023-02-16T10:18:43.320Z,7.88
2023-02-16T10:21:13.992Z,7.90
2023-02-16T10:23:44.918Z,7.92
2023-02-16T10:26:16.682Z,7.89
2023-02-16T10:28:45.736Z,7.88
2023-02-16T10:31:13.712Z,7.89
2023-02-16T10:33:42.184Z,7.82
2023-02-16T10:36:14.590Z,7.81
2023-02-16T10:38:43.624Z,7.80
2023-02-16T10:41:16.930Z,7.76
2023-02-16T10:43:47.136Z,7.78
2023-02-16T10:46:15.659Z,7.78
2023-02-16T10:48:42.061Z,7.80
2023-02-16T10:51:08.985Z,7.81
2023-02-16T10:53:39.223Z,7.84
2023-02-16T10:56:21.387Z,7.86
2023-02-16T10:58:49.984Z,7.87
2023-02-16T11:01:18.516Z,7.89
2023-02-16T11:03:47.434Z,7.93
2023-02-16T11:06:14.979Z,7.98
2023-02-16T11:08:47.172Z,8.02
2023-02-16T11:11:13.517Z,8.05
2023-02-16T11:13:40.315Z,8.12
2023-02-16T11:16:10.426Z,8.19
2023-02-16T11:18:38.729Z,8.22
2023-02-16T11:21:06.086Z,8.24
2023-02-16T11:23:33.536Z,8.25
2023-02-16T11:26:01.816Z,8.22
2023-02-16T11:28:32.084Z,8.19
2023-02-16T11:31:05.222Z,8.21
2023-02-16T11:33:33.299Z,8.20
2023-02-16T11:36:00.119Z,8.15
2023-02-16T11:38:27.668Z,8.10
2023-02-16T11:40:54.107Z,8.09
2023-02-16T11:43:20.530Z,8.06
2023-02-16T11:45:56.715Z,7.99
2023-02-16T11:48:26.109Z,7.96
2023-02-16T11:50:57.700Z,7.92
2023-02-16T11:53:25.272Z,7.91
2023-02-16T11:55:51.601Z,7.93
2023-02-16T11:58:18.781Z,7.95
2023-02-16T12:00:50.766Z,8.01
2023-02-16T12:03:23.064Z,8.12
2023-02-16T12:05:53.908Z,8.21
2023-02-16T12:08:27.708Z,8.28
2023-02-16T12:11:01.276Z,8.29
2023-02-16T12:13:33.373Z,8.25
2023-02-16T12:16:07.611Z,8.23
2023-02-16T12:18:38.895Z,8.23
2023-02-16T12:21:10.296Z,8.22
2023-02-16T12:23:39.638Z,8.22
2023-02-16T12:26:20.745Z,8.26
2023-02-16T12:28:49.706Z,8.33
2023-02-16T12:31:22.700Z,8.38
2023-02-16T12:33:53.493Z,8.49
2023-02-16T12:36:38.831Z,8.58
2023-02-16T12:39:12.589Z,8.69
2023-02-16T12:41:44.317Z,8.85
2023-02-16T12:44:15.651Z,9.00
2023-02-16T12:46:42.914Z,9.18
2023-02-16T12:49:13.870Z,9.34
2023-02-16T12:51:45.475Z,9.48
2023-02-16T12:54:17.245Z,9.60
2023-02-16T12:56:45.551Z,9.65
2023-02-16T12:59:17.360Z,9.70
2023-02-16T13:01:44.957Z,9.67
2023-02-16T13:04:17.468Z,9.69
2023-02-16T13:06:48.620Z,9.70
2023-02-16T13:09:21.880Z,9.73
2023-02-16T13:11:50.345Z,9.80
2023-02-16T13:14:17.386Z,9.81
2023-02-16T13:16:46.499Z,9.89
2023-02-16T13:19:13.593Z,9.94
2023-02-16T13:21:58.490Z,10.08
2023-02-16T13:24:35.846Z,10.11
2023-02-16T13:27:12.050Z,10.18
2023-02-16T13:29:51.649Z,10.30
2023-02-16T13:32:26.544Z,10.34
2023-02-16T13:35:02.909Z,10.40
2023-02-16T13:37:41.989Z,10.45
2023-02-16T13:40:22.162Z,10.50
2023-02-16T13:43:01.473Z,10.54
2023-02-16T13:45:29.747Z,10.58
2023-02-16T13:47:56.788Z,10.59
2023-02-16T13:50:25.300Z,10.57
2023-02-16T13:52:52.546Z,10.58
2023-02-16T13:55:24.420Z,10.57
2023-02-16T13:58:04.648Z,10.56
2023-02-16T14:00:32.540Z,10.57
2023-02-16T14:03:00.223Z,10.58
2023-02-16T14:05:28.558Z,10.61
2023-02-16T14:08:08.943Z,10.62
2023-02-16T14:10:50.155Z,10.63
2023-02-16T14:13:17.893Z,10.66
2023-02-16T14:15:49.937Z,10.69
2023-02-16T14:18:20.693Z,10.71
2023-02-16T14:20:47.040Z,10.73
2023-02-16T14:23:26.967Z,10.77
2023-02-16T14:26:00.520Z,10.80
2023-02-16T14:28:45.325Z,10.83
2023-02-16T14:31:14.911Z,10.85
2023-02-16T14:33:45.052Z,10.88
2023-02-16T14:36:14.008Z,10.87
2023-02-16T14:38:43.429Z,10.88
2023-02-16T14:41:11.998Z,10.86
2023-02-16T14:43:40.265Z,10.87
2023-02-16T14:46:17.866Z,10.89
2023-02-16T14:49:09.406Z,10.87
2023-02-16T14:51:49.827Z,10.87
2023-02-16T14:54:33.236Z,10.87
2023-02-16T14:57:00.266Z,10.89
2023-02-16T14:59:29.962Z,10.95
2023-02-16T15:01:56.364Z,10.99
2023-02-16T15:04:31.448Z,11.02
2023-02-16T15:06:58.826Z,11.03
2023-02-16T15:09:26.270Z,11.01
2023-02-16T15:11:53.860Z,11.02
2023-02-16T15:14:20.161Z,10.97
2023-02-16T15:16:46.462Z,10.95
2023-02-16T15:19:16.476Z,10.98
2023-02-16T15:21:44.206Z,11.00
2023-02-16T15:24:21.250Z,11.03
2023-02-16T15:26:52.874Z,11.07
2023-02-16T15:29:21.127Z,11.13
2023-02-16T15:31:48.050Z,11.19
2023-02-16T15:34:25.441Z,11.20
2023-02-16T15:36:53.169Z,11.24
2023-02-16T15:39:28.199Z,11.21
2023-02-16T15:42:11.734Z,11.22
2023-02-16T15:44:38.110Z,11.19
2023-02-16T15:47:07.866Z,11.15
2023-02-16T15:49:34.215Z,11.14
2023-02-16T15:52:02.034Z,11.16
2023-02-16T15:54:29.535Z,11.18
2023-02-16T15:56:56.977Z,11.28
2023-02-16T15:59:35.494Z,11.29
2023-02-16T16:02:04.104Z,11.25
2023-02-16T16:04:31.194Z,11.18
2023-02-16T16:06:58.121Z,11.16
2023-02-16T16:09:26.887Z,11.21
2023-02-16T16:11:53.992Z,11.19
2023-02-16T16:14:21.391Z,11.17
2023-02-16T16:16:47.941Z,11.18
2023-02-16T16:19:15.246Z,11.17
2023-02-16T16:21:46.165Z,11.13
2023-02-16T16:24:12.594Z,11.09
2023-02-16T16:26:51.416Z,11.06
2023-02-16T16:29:34.910Z,10.99
2023-02-16T16:32:01.679Z,10.98
2023-02-16T16:34:32.191Z,10.93
2023-02-16T16:36:59.269Z,10.92
2023-02-16T16:39:27.925Z,10.90
2023-02-16T16:42:21.212Z,10.88
2023-02-16T16:44:56.803Z,10.95
2023-02-16T16:47:28.207Z,10.95
2023-02-16T16:49:55.909Z,10.95
2023-02-16T16:52:29.684Z,11.02
2023-02-16T16:54:56.005Z,11.07
2023-02-16T16:57:22.289Z,11.07
2023-02-16T16:59:48.623Z,11.13
2023-02-16T17:02:16.335Z,11.11
2023-02-16T17:04:42.658Z,11.02
2023-02-16T17:07:08.988Z,10.87
2023-02-16T17:09:35.290Z,10.86
2023-02-16T17:12:01.615Z,10.84
2023-02-16T17:14:28.594Z,10.77
2023-02-16T17:16:54.928Z,10.70
2023-02-16T17:19:22.990Z,10.67
2023-02-16T17:21:49.310Z,10.58
2023-02-16T17:24:16.051Z,10.56
2023-02-16T17:26:42.414Z,10.50
2023-02-16T17:29:08.904Z,10.48
2023-02-16T17:31:35.267Z,10.44
2023-02-16T17:34:01.631Z,10.41
2023-02-16T17:36:29.337Z,10.38
2023-02-16T17:38:55.767Z,10.39
2023-02-16T17:41:23.254Z,10.28
2023-02-16T17:43:49.899Z,10.23
2023-02-16T17:46:16.558Z,10.23
2023-02-16T17:48:43.265Z,10.15
2023-02-16T17:51:13.232Z,10.10
2023-02-16T17:53:41.255Z,10.06
2023-02-16T17:56:10.614Z,10.07
2023-02-16T17:58:36.989Z,10.09
2023-02-16T18:01:03.436Z,10.04
2023-02-16T18:03:29.744Z,9.96
2023-02-16T18:05:56.045Z,9.92
2023-02-16T18:08:22.370Z,9.94
2023-02-16T18:10:51.144Z,9.92
2023-02-16T18:13:17.803Z,9.92
2023-02-16T18:15:45.203Z,9.91
2023-02-16T18:18:11.803Z,9.87
2023-02-16T18:20:38.236Z,9.88
2023-02-16T18:23:04.571Z,9.88
2023-02-16T18:25:30.986Z,9.84
2023-02-16T18:27:58.691Z,9.79
2023-02-16T18:30:25.089Z,9.92
2023-02-16T18:32:51.381Z,9.85
2023-02-16T18:35:17.879Z,9.90
2023-02-16T18:37:44.566Z,9.90
2023-02-16T18:40:11.890Z,9.85
2023-02-16T18:42:38.192Z,9.80
2023-02-16T18:45:06.205Z,9.80
2023-02-16T18:47:32.618Z,9.79
2023-02-16T18:49:58.957Z,9.76
2023-02-16T18:52:25.273Z,9.75
2023-02-16T18:54:51.627Z,9.76
2023-02-16T18:57:18.316Z,9.80
2023-02-16T18:59:45.202Z,9.78
2023-02-16T19:02:12.910Z,9.78
2023-02-16T19:04:39.324Z,9.79
2023-02-16T19:07:05.901Z,9.83
2023-02-16T19:09:32.207Z,9.81
2023-02-16T19:11:58.542Z,9.73
2023-02-16T19:14:24.915Z,9.73
2023-02-16T19:16:51.217Z,9.80
2023-02-16T19:19:18.858Z,9.76
2023-02-16T19:21:45.146Z,9.70
2023-02-16T19:24:11.772Z,9.84
2023-02-16T19:26:38.638Z,9.79
2023-02-16T19:29:04.966Z,9.76
2023-02-16T19:31:31.834Z,9.73
2023-02-16T19:33:59.146Z,9.74
2023-02-16T19:36:28.245Z,9.74
2023-02-16T19:38:54.549Z,9.83
2023-02-16T19:41:22.294Z,9.81
2023-02-16T19:43:48.829Z,9.82
2023-02-16T19:46:15.355Z,9.83
2023-02-16T19:48:42.051Z,9.89
2023-02-16T19:51:09.051Z,9.85
2023-02-16T19:53:37.344Z,9.85
2023-02-16T19:56:04.331Z,9.84
2023-02-16T19:58:30.816Z,9.81
2023-02-16T20:00:57.114Z,9.73
2023-02-16T20:03:23.449Z,9.80
2023-02-16T20:05:49.776Z,9.84
2023-02-16T20:08:16.087Z,9.81
2023-02-16T20:10:44.273Z,9.83
2023-02-16T20:13:10.817Z,9.77
2023-02-16T20:15:37.295Z,9.78
2023-02-16T20:18:03.639Z,9.84
2023-02-16T20:20:29.957Z,9.83
2023-02-16T20:22:56.262Z,9.81
2023-02-16T20:25:22.593Z,9.80
2023-02-16T20:27:50.221Z,9.86
2023-02-16T20:30:18.425Z,9.80
2023-02-16T20:32:47.019Z,9.79
2023-02-16T20:35:13.472Z,9.78
2023-02-16T20:37:39.795Z,9.82
2023-02-16T20:40:06.736Z,9.81
2023-02-16T20:42:33.068Z,9.90
2023-02-16T20:45:00.713Z,9.82
2023-02-16T20:47:27.004Z,9.75
2023-02-16T20:49:53.427Z,9.78
2023-02-16T20:52:19.722Z,9.78
2023-02-16T20:54:46.006Z,9.81
2023-02-16T20:57:25.821Z,9.81
2023-02-16T20:59:52.900Z,9.81
2023-02-16T21:02:20.584Z,9.78
2023-02-16T21:04:47.594Z,9.77
2023-02-16T21:07:13.889Z,9.82
2023-02-16T21:09:40.199Z,9.83
2023-02-16T21:12:06.538Z,9.85
2023-02-16T21:14:32.866Z,9.80
2023-02-16T21:16:59.182Z,9.80
2023-02-16T21:19:26.879Z,9.80
2023-02-16T21:21:53.279Z,9.84
2023-02-16T21:24:19.664Z,9.84
2023-02-16T21:26:45.975Z,9.85
2023-02-16T21:29:12.567Z,9.87
2023-02-16T21:31:38.928Z,9.84
2023-02-16T21:34:05.284Z,9.84
2023-02-16T21:36:32.931Z,9.84
2023-02-16T21:39:01.671Z,9.83
2023-02-16T21:41:28.647Z,9.85
2023-02-16T21:43:56.449Z,9.95
2023-02-16T21:46:23.208Z,9.93
2023-02-16T21:48:49.556Z,9.93
2023-02-16T21:51:16.948Z,9.97
2023-02-16T21:53:44.920Z,9.97
2023-02-16T21:56:18.412Z,9.94
2023-02-16T21:58:44.743Z,9.99
2023-02-16T22:01:11.125Z,10.04
2023-02-16T22:03:37.897Z,10.04
2023-02-16T22:06:05.398Z,10.04
2023-02-16T22:08:34.692Z,10.09
2023-02-16T22:11:05.448Z,10.07
2023-02-16T22:13:31.765Z,10.09
2023-02-16T22:15:58.065Z,10.13
2023-02-16T22:18:24.370Z,10.11
2023-02-16T22:20:50.660Z,10.17
2023-02-16T22:23:16.956Z,10.15
2023-02-16T22:25:43.286Z,10.18
2023-02-16T22:28:10.913Z,10.20
2023-02-16T22:30:37.227Z,10.20
2023-02-16T22:33:03.590Z,10.22
2023-02-16T22:35:29.910Z,10.21
2023-02-16T22:37:56.264Z,10.25
2023-02-16T22:40:22.590Z,10.26
2023-02-16T22:42:48.891Z,10.25
2023-02-16T22:45:16.677Z,10.27
2023-02-16T22:47:43.016Z,10.34
2023-02-16T22:50:09.725Z,10.28
2023-02-16T22:52:36.092Z,10.29
2023-02-16T22:55:02.414Z,10.34
2023-02-16T22:57:28.735Z,10.31
2023-02-16T22:59:55.038Z,10.28
2023-02-16T23:02:23.759Z,10.32
2023-02-16T23:04:50.135Z,10.34
2023-02-16T23:07:16.428Z,10.30
2023-02-16T23:09:42.736Z,10.33
2023-02-16T23:12:09.198Z,10.35
2023-02-16T23:14:36.601Z,10.33
2023-02-16T23:17:02.926Z,10.39
2023-02-16T23:19:30.579Z,10.40
2023-02-16T23:21:56.957Z,10.41
2023-02-16T23:24:23.790Z,10.39
2023-02-16T23:26:50.099Z,10.37
2023-02-16T23:29:16.741Z,10.41
2023-02-16T23:31:44.451Z,10.37
2023-02-16T23:34:11.110Z,10.37
2023-02-16T23:36:39.029Z,10.36
2023-02-16T23:39:06.811Z,10.37
2023-02-16T23:41:33.443Z,10.35
2023-02-16T23:44:01.149Z,10.38
2023-02-16T23:46:27.795Z,10.39
2023-02-16T23:48:54.216Z,10.43
2023-02-16T23:51:20.584Z,10.35
2023-02-16T23:53:48.290Z,10.39
2023-02-16T23:56:15.635Z,10.42
2023-02-16T23:58:42.732Z,10.43
